createdAt,value
2018-10-19T00:00:01.775Z,13.80
2018-10-19T00:02:29.411Z,13.70
2018-10-19T00:04:57.047Z,13.70
2018-10-19T00:07:24.723Z,13.80
2018-10-19T00:09:52.395Z,13.70
2018-10-19T00:12:20.078Z,13.80
2018-10-19T00:14:47.706Z,13.80
2018-10-19T00:17:15.422Z,13.80
2018-10-19T00:19:42.991Z,13.70
2018-10-19T00:22:10.684Z,13.70
2018-10-19T00:24:38.283Z,13.70
2018-10-19T00:27:05.974Z,13.70
2018-10-19T00:29:33.567Z,13.60
2018-10-19T00:32:01.216Z,13.60
2018-10-19T00:34:28.881Z,13.60
2018-10-19T00:36:56.524Z,13.60
2018-10-19T00:39:24.223Z,13.50
2018-10-19T00:41:51.826Z,13.50
2018-10-19T00:44:19.524Z,13.50
2018-10-19T00:46:47.158Z,13.60
2018-10-19T00:49:14.795Z,13.50
2018-10-19T00:51:42.423Z,13.50
2018-10-19T00:54:10.038Z,13.40
2018-10-19T00:56:37.656Z,13.40
2018-10-19T00:59:05.350Z,13.30
2018-10-19T01:01:32.926Z,13.30
2018-10-19T01:04:00.619Z,13.10
2018-10-19T01:06:28.208Z,13.10
2018-10-19T01:08:55.856Z,13.00
2018-10-19T01:11:23.535Z,13.10
2018-10-19T01:13:51.156Z,13.00
2018-10-19T01:16:18.787Z,13.00
2018-10-19T01:18:46.422Z,13.10
2018-10-19T01:21:14.143Z,13.00
2018-10-19T01:23:41.746Z,13.10
2018-10-19T01:26:09.979Z,13.10
2018-10-19T01:28:37.602Z,13.10
2018-10-19T01:31:05.278Z,13.10
2018-10-19T01:33:32.900Z,13.10
2018-10-19T01:36:00.591Z,13.00
2018-10-19T01:38:28.235Z,13.00
2018-10-19T01:40:55.959Z,13.00
2018-10-19T01:43:23.563Z,13.00
2018-10-19T01:45:57.280Z,12.90
2018-10-19T01:48:25.583Z,12.90
2018-10-19T01:50:53.171Z,12.80
2018-10-19T01:53:20.868Z,12.70
2018-10-19T01:55:48.474Z,12.80
2018-10-19T01:58:16.310Z,12.80
2018-10-19T02:00:43.935Z,12.70
2018-10-19T02:03:11.693Z,12.70
2018-10-19T02:05:39.620Z,12.70
2018-10-19T02:08:08.380Z,12.70
2018-10-19T02:10:36.049Z,12.70
2018-10-19T02:13:03.707Z,12.60
2018-10-19T02:15:31.310Z,12.60
2018-10-19T02:17:58.982Z,12.60
2018-10-19T02:20:26.613Z,12.50
2018-10-19T02:22:54.243Z,12.50
2018-10-19T02:25:21.870Z,12.50
2018-10-19T02:27:49.468Z,12.50
2018-10-19T02:30:17.345Z,12.40
2018-10-19T02:32:44.998Z,12.40
2018-10-19T02:35:12.723Z,12.40
2018-10-19T02:37:40.245Z,12.40
2018-10-19T02:40:08.389Z,12.30
2018-10-19T02:42:36.401Z,12.30
2018-10-19T02:45:04.203Z,12.30
2018-10-19T02:47:31.787Z,12.10
2018-10-19T02:49:59.379Z,12.10
2018-10-19T02:52:27.047Z,12.10
2018-10-19T02:54:54.619Z,12.10
2018-10-19T02:57:22.242Z,12.20
2018-10-19T02:59:49.866Z,12.20
2018-10-19T03:02:17.525Z,12.20
2018-10-19T03:04:45.117Z,12.20
2018-10-19T03:07:12.756Z,12.20
2018-10-19T03:09:40.379Z,12.20
2018-10-19T03:12:08.016Z,12.20
2018-10-19T03:14:35.707Z,12.20
2018-10-19T03:17:03.419Z,12.20
2018-10-19T03:19:31.015Z,12.10
2018-10-19T03:21:58.610Z,12.10
2018-10-19T03:24:26.260Z,12.10
2018-10-19T03:26:54.064Z,12.10
2018-10-19T03:29:21.804Z,12.00
2018-10-19T03:31:49.274Z,12.00
2018-10-19T03:34:16.887Z,12.00
2018-10-19T03:36:44.544Z,11.90
2018-10-19T03:39:12.260Z,11.90
2018-10-19T03:41:39.865Z,11.90
2018-10-19T03:44:07.502Z,11.90
2018-10-19T03:46:35.452Z,11.80
2018-10-19T03:49:03.182Z,11.80
2018-10-19T03:51:30.810Z,11.60
2018-10-19T03:53:58.406Z,11.70
2018-10-19T03:56:26.041Z,11.60
2018-10-19T03:58:53.780Z,11.70
2018-10-19T04:01:21.395Z,11.70
2018-10-19T04:03:49.013Z,11.50
2018-10-19T04:06:16.667Z,11.60
2018-10-19T04:08:44.314Z,11.60
2018-10-19T04:11:11.971Z,11.50
2018-10-19T04:13:39.631Z,11.50
2018-10-19T04:16:07.243Z,11.60
2018-10-19T04:18:34.917Z,11.50
2018-10-19T04:21:02.550Z,11.50
2018-10-19T04:23:30.251Z,11.60
2018-10-19T04:25:57.931Z,11.60
2018-10-19T04:28:25.535Z,11.50
2018-10-19T04:30:53.141Z,11.50
2018-10-19T04:33:20.773Z,11.50
2018-10-19T04:35:48.397Z,11.50
2018-10-19T04:38:15.979Z,11.60
2018-10-19T04:40:43.605Z,11.50
2018-10-19T04:43:11.234Z,11.50
2018-10-19T04:45:38.854Z,11.40
2018-10-19T04:48:06.517Z,11.40
2018-10-19T04:50:34.257Z,11.40
2018-10-19T04:53:01.938Z,11.40
2018-10-19T04:55:29.535Z,11.30
2018-10-19T04:57:57.187Z,11.30
2018-10-19T05:00:24.877Z,11.30
2018-10-19T05:02:52.554Z,11.30
2018-10-19T05:05:20.568Z,11.30
2018-10-19T05:07:48.217Z,11.20
2018-10-19T05:10:15.935Z,11.20
2018-10-19T05:12:43.689Z,11.20
2018-10-19T05:15:11.901Z,11.20
2018-10-19T05:17:39.676Z,11.20
2018-10-19T05:20:09.324Z,11.10
2018-10-19T05:22:37.241Z,11.10
2018-10-19T05:25:06.815Z,11.10
2018-10-19T05:27:34.466Z,11.10
2018-10-19T05:30:02.104Z,11.00
2018-10-19T05:32:29.719Z,11.00
2018-10-19T05:34:57.331Z,11.00
2018-10-19T05:37:24.934Z,11.00
2018-10-19T05:39:52.719Z,11.00
2018-10-19T05:42:20.496Z,10.90
2018-10-19T05:44:48.161Z,10.90
2018-10-19T05:47:15.885Z,10.90
2018-10-19T05:49:43.572Z,10.90
2018-10-19T05:52:11.303Z,10.90
2018-10-19T05:54:38.893Z,10.90
2018-10-19T05:57:06.596Z,10.90
2018-10-19T05:59:34.250Z,10.90
2018-10-19T06:02:02.090Z,10.90
2018-10-19T06:04:29.663Z,10.90
2018-10-19T06:06:57.272Z,10.90
2018-10-19T06:09:24.890Z,10.90
2018-10-19T06:11:52.730Z,10.80
2018-10-19T06:14:20.443Z,10.80
2018-10-19T06:16:48.057Z,10.80
2018-10-19T06:19:15.805Z,10.70
2018-10-19T06:21:43.519Z,10.80
2018-10-19T06:24:11.155Z,10.80
2018-10-19T06:26:38.868Z,10.80
2018-10-19T06:29:06.761Z,10.90
2018-10-19T06:31:34.427Z,10.90
2018-10-19T06:34:02.224Z,10.90
2018-10-19T06:36:29.851Z,10.90
2018-10-19T06:38:57.562Z,10.90
2018-10-19T06:41:25.234Z,10.90
2018-10-19T06:43:52.892Z,10.90
2018-10-19T06:46:20.569Z,11.00
2018-10-19T06:48:48.188Z,11.00
2018-10-19T06:51:15.866Z,11.00
2018-10-19T06:53:49.803Z,11.00
2018-10-19T06:56:17.412Z,11.00
2018-10-19T06:58:45.041Z,10.80
2018-10-19T07:01:12.665Z,10.80
2018-10-19T07:03:40.309Z,10.60
2018-10-19T07:06:08.084Z,10.60
2018-10-19T07:08:35.829Z,10.60
2018-10-19T07:11:03.570Z,10.80
2018-10-19T07:13:31.184Z,10.90
2018-10-19T07:15:58.865Z,11.00
2018-10-19T07:18:26.662Z,11.10
2018-10-19T07:20:54.311Z,11.00
2018-10-19T07:23:21.931Z,10.90
2018-10-19T07:25:49.645Z,10.90
2018-10-19T07:28:17.255Z,10.90
2018-10-19T07:30:45.084Z,10.90
2018-10-19T07:33:12.725Z,10.90
2018-10-19T07:35:40.396Z,11.00
2018-10-19T07:38:08.167Z,11.00
2018-10-19T07:40:36.158Z,11.10
2018-10-19T07:43:04.212Z,11.30
2018-10-19T07:45:31.891Z,11.40
2018-10-19T07:47:59.743Z,11.40
2018-10-19T07:50:27.498Z,11.30
2018-10-19T07:52:55.182Z,11.40
2018-10-19T07:55:23.102Z,11.40
2018-10-19T07:57:50.894Z,11.60
2018-10-19T08:00:18.600Z,11.70
2018-10-19T08:02:46.415Z,11.90
2018-10-19T08:05:14.102Z,11.80
2018-10-19T08:07:41.839Z,12.10
2018-10-19T08:10:10.239Z,12.10
2018-10-19T08:12:37.894Z,12.40
2018-10-19T08:15:06.626Z,12.40
2018-10-19T08:17:34.377Z,12.40
2018-10-19T08:20:02.194Z,12.60
2018-10-19T08:22:29.870Z,12.60
2018-10-19T08:24:57.748Z,12.90
2018-10-19T08:27:25.487Z,13.10
2018-10-19T08:29:53.059Z,13.20
2018-10-19T08:32:20.741Z,13.20
2018-10-19T08:34:48.430Z,13.30
2018-10-19T08:37:16.294Z,13.20
2018-10-19T08:39:44.180Z,13.40
2018-10-19T08:42:11.838Z,13.50
2018-10-19T08:44:39.437Z,13.80
2018-10-19T08:47:07.085Z,14.20
2018-10-19T08:49:34.680Z,14.40
2018-10-19T08:52:02.289Z,14.30
2018-10-19T08:54:29.932Z,14.40
2018-10-19T08:56:57.608Z,14.50
2018-10-19T08:59:25.908Z,14.50
2018-10-19T09:01:53.627Z,14.50
2018-10-19T09:04:21.259Z,14.50
2018-10-19T09:06:48.872Z,14.70
2018-10-19T09:09:16.563Z,14.70
2018-10-19T09:11:44.399Z,14.90
2018-10-19T09:14:23.168Z,15.10
2018-10-19T09:16:50.787Z,15.40
2018-10-19T09:19:18.431Z,15.40
2018-10-19T09:21:46.064Z,15.70
2018-10-19T09:24:13.707Z,15.90
2018-10-19T09:26:42.647Z,16.00
2018-10-19T09:29:10.322Z,16.10
2018-10-19T09:31:38.470Z,16.40
2018-10-19T09:34:06.103Z,16.50
2018-10-19T09:36:33.946Z,16.60
2018-10-19T09:39:01.407Z,16.80
2018-10-19T09:41:29.328Z,17.00
2018-10-19T09:43:56.857Z,17.00
2018-10-19T09:46:24.438Z,17.30
2018-10-19T09:48:52.052Z,17.50
2018-10-19T09:51:19.640Z,17.80
2018-10-19T09:53:47.338Z,17.90
2018-10-19T09:56:15.118Z,17.90
2018-10-19T09:58:42.718Z,17.80
2018-10-19T10:01:16.037Z,18.10
2018-10-19T10:03:43.548Z,18.30
2018-10-19T10:06:11.347Z,18.30
2018-10-19T10:08:38.924Z,18.20
2018-10-19T10:11:06.682Z,18.30
2018-10-19T10:13:34.244Z,18.20
2018-10-19T10:16:01.870Z,18.40
2018-10-19T10:18:29.732Z,18.50
2018-10-19T10:20:57.677Z,18.60
2018-10-19T10:23:25.342Z,19.00
2018-10-19T10:25:53.023Z,19.20
2018-10-19T10:28:20.727Z,19.30
2018-10-19T10:30:48.324Z,19.70
2018-10-19T10:33:15.940Z,20.10
2018-10-19T10:35:44.505Z,20.10
2018-10-19T10:38:12.191Z,20.20
2018-10-19T10:40:39.790Z,19.80
2018-10-19T10:43:07.485Z,19.90
2018-10-19T10:45:35.056Z,20.00
2018-10-19T10:48:02.721Z,20.00
2018-10-19T10:50:30.338Z,20.20
2018-10-19T10:52:57.938Z,20.60
2018-10-19T10:55:25.581Z,21.40
2018-10-19T10:57:53.242Z,22.10
2018-10-19T11:00:20.822Z,21.80
2018-10-19T11:02:48.449Z,21.80
2018-10-19T11:05:16.119Z,21.80
2018-10-19T11:07:43.844Z,21.10
2018-10-19T11:10:11.427Z,21.40
2018-10-19T11:12:39.054Z,21.60
2018-10-19T11:15:07.396Z,21.80
2018-10-19T11:17:35.027Z,23.10
2018-10-19T11:20:02.860Z,24.50
2018-10-19T11:22:30.467Z,25.90
2018-10-19T11:24:58.130Z,27.20
2018-10-19T11:27:25.768Z,28.00
2018-10-19T11:29:53.450Z,29.60
2018-10-19T11:32:21.162Z,30.60
2018-10-19T11:34:48.777Z,30.30
2018-10-19T11:37:16.474Z,30.80
2018-10-19T11:39:55.783Z,31.80
2018-10-19T11:42:23.399Z,31.10
2018-10-19T11:44:50.981Z,32.10
2018-10-19T11:47:18.606Z,31.40
2018-10-19T11:49:46.251Z,30.00
2018-10-19T11:52:13.911Z,30.40
2018-10-19T11:54:41.513Z,32.20
2018-10-19T11:57:09.171Z,33.10
2018-10-19T11:59:36.771Z,33.40
2018-10-19T12:02:04.711Z,32.10
2018-10-19T12:04:32.330Z,32.70
2018-10-19T12:07:00.006Z,32.70
2018-10-19T12:09:27.581Z,32.00
2018-10-19T12:11:55.212Z,31.70
2018-10-19T12:14:22.930Z,31.80
2018-10-19T12:16:50.675Z,31.70
2018-10-19T12:19:18.158Z,31.50
2018-10-19T12:21:45.783Z,30.60
2018-10-19T12:24:13.444Z,29.30
2018-10-19T12:26:41.082Z,28.40
2018-10-19T12:29:08.734Z,27.80
2018-10-19T12:31:36.383Z,27.30
2018-10-19T12:34:04.175Z,26.00
2018-10-19T12:36:31.800Z,25.60
2018-10-19T12:38:59.487Z,25.40
2018-10-19T12:41:27.072Z,25.40
2018-10-19T12:43:54.676Z,25.60
2018-10-19T12:46:49.844Z,25.30
2018-10-19T12:49:20.678Z,25.20
2018-10-19T12:51:48.317Z,25.00
2018-10-19T12:54:16.208Z,25.10
2018-10-19T12:56:43.861Z,25.20
2018-10-19T12:59:11.488Z,25.00
2018-10-19T13:01:39.166Z,25.00
2018-10-19T13:04:06.815Z,25.00
2018-10-19T13:06:34.486Z,24.90
2018-10-19T13:09:02.602Z,24.60
2018-10-19T13:11:30.151Z,24.80
2018-10-19T13:13:57.783Z,24.40
2018-10-19T13:16:25.419Z,25.10
2018-10-19T13:18:53.077Z,25.60
2018-10-19T13:21:20.839Z,27.00
2018-10-19T13:23:48.516Z,28.10
2018-10-19T13:26:16.190Z,29.10
2018-10-19T13:28:44.122Z,30.10
2018-10-19T13:31:11.806Z,31.00
2018-10-19T13:33:39.464Z,30.50
2018-10-19T13:36:07.150Z,29.70
2018-10-19T13:38:34.724Z,28.40
2018-10-19T13:41:02.392Z,27.90
2018-10-19T13:43:29.998Z,27.60
2018-10-19T13:45:57.696Z,27.70
2018-10-19T13:48:25.270Z,27.30
2018-10-19T13:50:52.904Z,27.60
2018-10-19T13:53:20.606Z,28.90
2018-10-19T13:55:48.196Z,29.50
2018-10-19T13:58:16.163Z,30.50
2018-10-19T14:00:43.818Z,30.80
2018-10-19T14:03:11.550Z,31.10
2018-10-19T14:05:39.311Z,31.20
2018-10-19T14:08:06.896Z,30.90
2018-10-19T14:10:34.547Z,30.60
2018-10-19T14:13:02.180Z,29.90
2018-10-19T14:15:29.783Z,28.70
2018-10-19T14:17:57.454Z,28.00
2018-10-19T14:20:25.046Z,27.30
2018-10-19T14:22:52.714Z,26.70
2018-10-19T14:25:20.296Z,26.00
2018-10-19T14:27:47.956Z,25.80
2018-10-19T14:30:16.768Z,25.40
2018-10-19T14:32:44.422Z,25.30
2018-10-19T14:35:12.777Z,25.10
2018-10-19T14:37:41.620Z,24.90
2018-10-19T14:40:11.289Z,24.60
2018-10-19T14:42:39.459Z,24.50
2018-10-19T14:45:08.428Z,24.60
2018-10-19T14:47:36.684Z,24.70
2018-10-19T14:50:04.637Z,24.90
2018-10-19T14:52:32.303Z,25.00
2018-10-19T14:54:59.988Z,25.20
2018-10-19T14:57:27.618Z,25.10
2018-10-19T14:59:55.230Z,25.00
2018-10-19T15:02:22.916Z,24.80
2018-10-19T15:04:50.602Z,25.10
2018-10-19T15:07:18.331Z,25.10
2018-10-19T15:09:46.158Z,24.50
2018-10-19T15:12:13.722Z,24.20
2018-10-19T15:14:41.340Z,23.70
2018-10-19T15:17:09.006Z,23.40
2018-10-19T15:19:36.649Z,23.00
2018-10-19T15:22:04.411Z,22.60
2018-10-19T15:24:32.043Z,22.20
2018-10-19T15:26:59.725Z,22.00
2018-10-19T15:29:27.438Z,21.50
2018-10-19T15:31:54.982Z,21.40
2018-10-19T15:34:22.631Z,21.20
2018-10-19T15:36:50.271Z,21.00
2018-10-19T15:39:17.905Z,21.00
2018-10-19T15:41:45.516Z,20.90
2018-10-19T15:44:13.182Z,20.70
2018-10-19T15:46:40.888Z,20.50
2018-10-19T15:49:08.526Z,20.50
2018-10-19T15:51:36.180Z,20.30
2018-10-19T15:54:03.886Z,20.20
2018-10-19T15:56:31.747Z,20.10
2018-10-19T15:58:59.372Z,20.00
2018-10-19T16:01:27.027Z,19.90
2018-10-19T16:03:54.708Z,19.80
2018-10-19T16:06:22.334Z,19.60
2018-10-19T16:08:49.937Z,19.50
2018-10-19T16:11:17.574Z,19.40
2018-10-19T16:13:45.335Z,19.30
2018-10-19T16:16:12.974Z,19.20
2018-10-19T16:18:40.625Z,19.10
2018-10-19T16:21:08.318Z,19.00
2018-10-19T16:23:35.895Z,18.90
2018-10-19T16:26:03.678Z,18.90
2018-10-19T16:28:31.595Z,18.70
2018-10-19T16:30:59.205Z,18.50
2018-10-19T16:33:26.954Z,18.40
2018-10-19T16:35:54.616Z,18.30
2018-10-19T16:38:22.352Z,18.20
2018-10-19T16:40:50.021Z,18.00
2018-10-19T16:43:17.701Z,17.90
2018-10-19T16:45:45.374Z,17.80
2018-10-19T16:48:13.091Z,17.60
2018-10-19T16:50:40.828Z,17.40
2018-10-19T16:53:08.576Z,17.20
2018-10-19T16:55:36.167Z,17.10
2018-10-19T16:58:03.850Z,17.10
2018-10-19T17:00:31.712Z,17.00
2018-10-19T17:02:59.540Z,16.90
2018-10-19T17:05:27.048Z,16.80
2018-10-19T17:07:54.747Z,16.80
2018-10-19T17:10:22.575Z,16.80
2018-10-19T17:12:50.241Z,16.80
2018-10-19T17:15:18.474Z,16.80
2018-10-19T17:17:46.139Z,16.80
2018-10-19T17:20:13.903Z,16.80
2018-10-19T17:22:41.725Z,16.80
2018-10-19T17:25:10.802Z,16.70
2018-10-19T17:27:38.942Z,16.70
2018-10-19T17:30:09.073Z,16.60
2018-10-19T17:32:37.314Z,16.60
2018-10-19T17:35:05.085Z,16.50
2018-10-19T17:37:32.866Z,16.40
2018-10-19T17:40:00.513Z,16.40
2018-10-19T17:42:28.212Z,16.30
2018-10-19T17:44:55.906Z,16.30
2018-10-19T17:47:23.609Z,16.10
2018-10-19T17:49:51.275Z,16.00
2018-10-19T17:52:18.934Z,16.10
2018-10-19T17:54:46.603Z,16.10
2018-10-19T17:57:14.430Z,16.10
2018-10-19T17:59:42.016Z,16.00
2018-10-19T18:02:09.727Z,16.00
2018-10-19T18:04:37.443Z,15.90
2018-10-19T18:07:05.473Z,15.80
2018-10-19T18:09:33.157Z,15.80
2018-10-19T18:12:00.802Z,15.80
2018-10-19T18:14:28.559Z,15.80
2018-10-19T18:16:56.310Z,15.70
2018-10-19T18:19:23.909Z,15.70
2018-10-19T18:21:51.905Z,15.60
2018-10-19T18:24:19.467Z,15.50
2018-10-19T18:26:47.666Z,15.50
2018-10-19T18:29:15.373Z,15.40
2018-10-19T18:31:42.939Z,15.30
2018-10-19T18:34:10.546Z,15.30
2018-10-19T18:36:39.196Z,15.30
2018-10-19T18:39:10.221Z,15.30
2018-10-19T18:41:37.877Z,15.30
2018-10-19T18:44:06.323Z,15.20
2018-10-19T18:46:33.960Z,15.20
2018-10-19T18:49:01.616Z,15.20
2018-10-19T18:51:29.282Z,15.20
2018-10-19T18:53:56.956Z,15.10
2018-10-19T18:56:24.611Z,15.10
2018-10-19T18:58:52.410Z,15.10
2018-10-19T19:01:20.091Z,14.90
2018-10-19T19:03:47.866Z,14.90
2018-10-19T19:06:15.561Z,14.90
2018-10-19T19:08:43.319Z,14.80
2018-10-19T19:11:12.625Z,14.70
2018-10-19T19:13:46.468Z,14.60
2018-10-19T19:16:19.813Z,14.60
2018-10-19T19:18:48.376Z,14.60
2018-10-19T19:21:16.041Z,14.70
2018-10-19T19:23:49.424Z,14.70
2018-10-19T19:26:18.893Z,14.70
2018-10-19T19:28:46.539Z,14.60
2018-10-19T19:31:14.459Z,14.50
2018-10-19T19:33:47.616Z,14.40
2018-10-19T19:36:15.262Z,14.30
2018-10-19T19:38:43.128Z,14.30
2018-10-19T19:41:16.630Z,14.30
2018-10-19T19:43:52.994Z,14.30
2018-10-19T19:46:20.614Z,14.30
2018-10-19T19:48:53.860Z,14.40
2018-10-19T19:51:21.544Z,14.30
2018-10-19T19:53:49.255Z,14.30
2018-10-19T19:56:16.943Z,14.30
2018-10-19T19:58:44.615Z,14.20
2018-10-19T20:01:12.272Z,14.20
2018-10-19T20:03:40.055Z,14.20
2018-10-19T20:06:08.133Z,14.10
2018-10-19T20:08:35.869Z,14.10
2018-10-19T20:11:03.588Z,14.00
2018-10-19T20:13:31.195Z,14.00
2018-10-19T20:15:58.896Z,14.00
2018-10-19T20:18:26.532Z,14.00
2018-10-19T20:20:54.178Z,14.00
2018-10-19T20:23:21.911Z,14.00
2018-10-19T20:25:49.560Z,13.90
2018-10-19T20:28:17.244Z,13.80
2018-10-19T20:30:44.978Z,13.70
2018-10-19T20:33:12.645Z,13.70
2018-10-19T20:35:40.346Z,13.70
2018-10-19T20:38:08.015Z,13.60
2018-10-19T20:40:35.625Z,13.60
2018-10-19T20:43:03.338Z,13.70
2018-10-19T20:45:30.998Z,13.60
2018-10-19T20:47:58.711Z,13.70
2018-10-19T20:50:26.353Z,13.70
2018-10-19T20:52:54.075Z,13.60
2018-10-19T20:55:21.781Z,13.60
2018-10-19T20:57:49.474Z,13.60
2018-10-19T21:00:18.119Z,13.50
2018-10-19T21:02:45.763Z,13.50
2018-10-19T21:05:13.587Z,13.40
2018-10-19T21:07:41.251Z,13.40
2018-10-19T21:10:12.162Z,13.40
2018-10-19T21:12:39.854Z,13.40
2018-10-19T21:15:09.682Z,13.30
2018-10-19T21:17:37.715Z,13.10
2018-10-19T21:20:06.078Z,13.00
2018-10-19T21:22:33.762Z,12.90
2018-10-19T21:25:01.775Z,13.00
2018-10-19T21:27:30.301Z,13.00
2018-10-19T21:29:58.028Z,13.00
2018-10-19T21:32:25.647Z,13.00
2018-10-19T21:34:53.342Z,13.00
2018-10-19T21:37:21.017Z,13.10
2018-10-19T21:39:48.690Z,13.10
2018-10-19T21:42:16.379Z,13.10
2018-10-19T21:44:44.022Z,12.80
2018-10-19T21:47:11.757Z,12.80
2018-10-19T21:49:39.420Z,12.80
2018-10-19T21:52:07.067Z,12.80
2018-10-19T21:54:34.723Z,12.90
2018-10-19T21:57:02.421Z,12.90
2018-10-19T21:59:30.080Z,12.80
2018-10-19T22:01:57.770Z,12.80
2018-10-19T22:04:25.389Z,12.80
2018-10-19T22:06:53.001Z,12.80
2018-10-19T22:09:20.674Z,12.70
2018-10-19T22:11:48.322Z,12.50
2018-10-19T22:14:15.949Z,12.40
2018-10-19T22:16:43.599Z,12.40
2018-10-19T22:19:11.362Z,12.50
2018-10-19T22:21:39.650Z,12.50
2018-10-19T22:24:08.939Z,12.60
2018-10-19T22:26:36.863Z,12.50
2018-10-19T22:29:04.883Z,12.50
2018-10-19T22:31:33.487Z,12.60
2018-10-19T22:34:07.950Z,12.60
2018-10-19T22:36:35.791Z,12.50
2018-10-19T22:39:04.274Z,12.50
2018-10-19T22:41:31.902Z,12.50
2018-10-19T22:43:59.550Z,12.50
2018-10-19T22:46:27.239Z,12.50
2018-10-19T22:48:54.857Z,12.50
2018-10-19T22:51:22.514Z,12.40
2018-10-19T22:53:50.781Z,12.40
2018-10-19T22:56:19.138Z,12.40
2018-10-19T22:58:46.815Z,12.30
2018-10-19T23:01:14.512Z,12.20
2018-10-19T23:03:42.204Z,12.00
2018-10-19T23:06:09.736Z,12.00
2018-10-19T23:08:37.337Z,12.10
2018-10-19T23:11:05.032Z,12.10
2018-10-19T23:13:33.174Z,12.10
2018-10-19T23:16:00.795Z,12.20
2018-10-19T23:18:29.584Z,12.10
2018-10-19T23:20:57.188Z,12.00
2018-10-19T23:23:24.776Z,12.00
2018-10-19T23:25:53.149Z,12.00
2018-10-19T23:28:20.781Z,12.00
2018-10-19T23:30:49.046Z,12.00
2018-10-19T23:33:16.618Z,12.00
2018-10-19T23:35:44.271Z,12.00
2018-10-19T23:38:11.928Z,11.80
2018-10-19T23:40:39.565Z,11.90
2018-10-19T23:43:07.285Z,11.90
2018-10-19T23:45:34.906Z,11.90
2018-10-19T23:48:02.562Z,12.00
2018-10-19T23:50:30.198Z,11.90
2018-10-19T23:52:58.109Z,11.90
2018-10-19T23:55:25.688Z,11.90
2018-10-19T23:57:53.416Z,11.70
